sensor_id;sensor_type;location;lat;lon;timestamp;temperature;humidity
12130;DHT22;6128;59.340;18.040;2022-09-12T00:01:22;12.30;99.90
12130;DHT22;6128;59.340;18.040;2022-09-12T00:03:51;12.30;99.90
12130;DHT22;6128;59.340;18.040;2022-09-12T00:06:23;12.20;99.90
12130;DHT22;6128;59.340;18.040;2022-09-12T00:08:52;12.20;99.90
12130;DHT22;6128;59.340;18.040;2022-09-12T00:11:20;12.20;99.90
12130;DHT22;6128;59.340;18.040;2022-09-12T00:13:48;12.20;99.90
12130;DHT22;6128;59.340;18.040;2022-09-12T00:16:18;12.20;99.90
12130;DHT22;6128;59.340;18.040;2022-09-12T00:18:46;12.20;99.90
12130;DHT22;6128;59.340;18.040;2022-09-12T00:21:14;12.20;99.90
12130;DHT22;6128;59.340;18.040;2022-09-12T00:23:42;12.10;99.90
12130;DHT22;6128;59.340;18.040;2022-09-12T00:26:09;12.10;99.90
12130;DHT22;6128;59.340;18.040;2022-09-12T00:28:38;12.10;99.90
12130;DHT22;6128;59.340;18.040;2022-09-12T00:31:09;12.10;99.90
12130;DHT22;6128;59.340;18.040;2022-09-12T00:33:37;12.00;99.90
12130;DHT22;6128;59.340;18.040;2022-09-12T00:36:05;12.00;99.90
12130;DHT22;6128;59.340;18.040;2022-09-12T00:38:33;12.00;99.90
12130;DHT22;6128;59.340;18.040;2022-09-12T00:41:03;12.00;99.90
12130;DHT22;6128;59.340;18.040;2022-09-12T00:43:37;11.90;99.90
12130;DHT22;6128;59.340;18.040;2022-09-12T00:46:09;11.90;99.90
12130;DHT22;6128;59.340;18.040;2022-09-12T00:48:41;11.90;99.90
12130;DHT22;6128;59.340;18.040;2022-09-12T00:51:10;11.90;99.90
12130;DHT22;6128;59.340;18.040;2022-09-12T00:53:38;11.80;99.90
12130;DHT22;6128;59.340;18.040;2022-09-12T00:56:06;11.80;99.90
12130;DHT22;6128;59.340;18.040;2022-09-12T00:58:38;11.80;99.90
12130;DHT22;6128;59.340;18.040;2022-09-12T01:01:06;11.80;99.90
12130;DHT22;6128;59.340;18.040;2022-09-12T01:03:34;11.80;99.90
12130;DHT22;6128;59.340;18.040;2022-09-12T01:06:06;11.80;99.90
12130;DHT22;6128;59.340;18.040;2022-09-12T01:08:35;11.80;99.90
12130;DHT22;6128;59.340;18.040;2022-09-12T01:11:04;11.80;99.90
12130;DHT22;6128;59.340;18.040;2022-09-12T01:13:32;11.80;99.90
12130;DHT22;6128;59.340;18.040;2022-09-12T01:16:00;11.80;99.90
12130;DHT22;6128;59.340;18.040;2022-09-12T01:18:33;11.70;99.90
12130;DHT22;6128;59.340;18.040;2022-09-12T01:21:16;11.70;99.90
12130;DHT22;6128;59.340;18.040;2022-09-12T01:24:10;11.70;99.90
12130;DHT22;6128;59.340;18.040;2022-09-12T01:27:07;11.70;99.90
12130;DHT22;6128;59.340;18.040;2022-09-12T01:30:03;11.70;99.90
12130;DHT22;6128;59.340;18.040;2022-09-12T01:32:40;11.70;99.90
12130;DHT22;6128;59.340;18.040;2022-09-12T01:35:19;11.70;99.90
12130;DHT22;6128;59.340;18.040;2022-09-12T01:37:56;11.70;99.90
12130;DHT22;6128;59.340;18.040;2022-09-12T01:40:30;11.70;99.90
12130;DHT22;6128;59.340;18.040;2022-09-12T01:43:03;11.70;99.90
12130;DHT22;6128;59.340;18.040;2022-09-12T01:45:37;11.60;99.90
12130;DHT22;6128;59.340;18.040;2022-09-12T01:48:11;11.60;99.90
12130;DHT22;6128;59.340;18.040;2022-09-12T01:50:45;11.60;99.90
12130;DHT22;6128;59.340;18.040;2022-09-12T01:53:17;11.60;99.90
12130;DHT22;6128;59.340;18.040;2022-09-12T01:55:51;11.60;99.90
12130;DHT22;6128;59.340;18.040;2022-09-12T01:58:22;11.60;99.90
12130;DHT22;6128;59.340;18.040;2022-09-12T02:00:57;11.60;99.90
12130;DHT22;6128;59.340;18.040;2022-09-12T02:03:29;11.60;99.90
12130;DHT22;6128;59.340;18.040;2022-09-12T02:06:02;11.60;99.90
12130;DHT22;6128;59.340;18.040;2022-09-12T02:08:34;11.60;99.90
12130;DHT22;6128;59.340;18.040;2022-09-12T02:11:07;11.60;99.90
12130;DHT22;6128;59.340;18.040;2022-09-12T02:13:38;11.60;99.90
12130;DHT22;6128;59.340;18.040;2022-09-12T02:16:08;11.60;99.90
12130;DHT22;6128;59.340;18.040;2022-09-12T02:18:38;11.60;99.90
12130;DHT22;6128;59.340;18.040;2022-09-12T02:21:07;11.60;99.90
12130;DHT22;6128;59.340;18.040;2022-09-12T02:23:40;11.60;99.90
12130;DHT22;6128;59.340;18.040;2022-09-12T02:26:16;11.60;99.90
12130;DHT22;6128;59.340;18.040;2022-09-12T02:28:45;11.50;99.90
12130;DHT22;6128;59.340;18.040;2022-09-12T02:31:18;11.50;99.90
12130;DHT22;6128;59.340;18.040;2022-09-12T02:33:59;11.50;99.90
12130;DHT22;6128;59.340;18.040;2022-09-12T02:36:35;11.50;99.90
12130;DHT22;6128;59.340;18.040;2022-09-12T02:39:05;11.50;99.90
12130;DHT22;6128;59.340;18.040;2022-09-12T02:41:32;11.50;99.90
12130;DHT22;6128;59.340;18.040;2022-09-12T02:43:59;11.50;99.90
12130;DHT22;6128;59.340;18.040;2022-09-12T02:46:41;11.50;99.90
12130;DHT22;6128;59.340;18.040;2022-09-12T02:49:11;11.50;99.90
12130;DHT22;6128;59.340;18.040;2022-09-12T02:51:39;11.40;99.90
12130;DHT22;6128;59.340;18.040;2022-09-12T02:54:07;11.40;99.90
12130;DHT22;6128;59.340;18.040;2022-09-12T02:56:35;11.40;99.90
12130;DHT22;6128;59.340;18.040;2022-09-12T02:59:06;11.40;99.90
12130;DHT22;6128;59.340;18.040;2022-09-12T03:01:46;11.30;99.90
12130;DHT22;6128;59.340;18.040;2022-09-12T03:07:25;11.30;99.90
12130;DHT22;6128;59.340;18.040;2022-09-12T03:10:02;11.30;99.90
12130;DHT22;6128;59.340;18.040;2022-09-12T03:12:44;11.30;99.90
12130;DHT22;6128;59.340;18.040;2022-09-12T03:15:24;11.30;99.90
12130;DHT22;6128;59.340;18.040;2022-09-12T03:18:04;11.30;99.90
12130;DHT22;6128;59.340;18.040;2022-09-12T03:20:44;11.30;99.90
12130;DHT22;6128;59.340;18.040;2022-09-12T03:23:20;11.30;99.90
12130;DHT22;6128;59.340;18.040;2022-09-12T03:25:53;11.30;99.90
12130;DHT22;6128;59.340;18.040;2022-09-12T03:28:22;11.30;99.90
12130;DHT22;6128;59.340;18.040;2022-09-12T03:30:50;11.30;99.90
12130;DHT22;6128;59.340;18.040;2022-09-12T03:33:20;11.30;99.90
12130;DHT22;6128;59.340;18.040;2022-09-12T03:35:49;11.30;99.90
12130;DHT22;6128;59.340;18.040;2022-09-12T03:38:17;11.30;99.90
12130;DHT22;6128;59.340;18.040;2022-09-12T03:40:44;11.30;99.90
12130;DHT22;6128;59.340;18.040;2022-09-12T03:43:12;11.30;99.90
12130;DHT22;6128;59.340;18.040;2022-09-12T03:45:39;11.30;99.90
12130;DHT22;6128;59.340;18.040;2022-09-12T03:48:06;11.30;99.90
12130;DHT22;6128;59.340;18.040;2022-09-12T03:50:33;11.30;99.90
12130;DHT22;6128;59.340;18.040;2022-09-12T03:53:02;11.30;99.90
12130;DHT22;6128;59.340;18.040;2022-09-12T03:55:29;11.40;99.90
12130;DHT22;6128;59.340;18.040;2022-09-12T03:57:56;11.40;99.90
12130;DHT22;6128;59.340;18.040;2022-09-12T04:00:24;11.40;99.90
12130;DHT22;6128;59.340;18.040;2022-09-12T04:02:55;11.40;99.90
12130;DHT22;6128;59.340;18.040;2022-09-12T04:05:22;11.40;99.90
12130;DHT22;6128;59.340;18.040;2022-09-12T04:07:50;11.40;99.90
12130;DHT22;6128;59.340;18.040;2022-09-12T04:10:18;11.40;99.90
12130;DHT22;6128;59.340;18.040;2022-09-12T04:12:45;11.40;99.90
12130;DHT22;6128;59.340;18.040;2022-09-12T04:15:13;11.40;99.90
12130;DHT22;6128;59.340;18.040;2022-09-12T04:17:40;11.30;99.90
12130;DHT22;6128;59.340;18.040;2022-09-12T04:20:07;11.30;99.90
12130;DHT22;6128;59.340;18.040;2022-09-12T04:22:35;11.30;99.90
12130;DHT22;6128;59.340;18.040;2022-09-12T04:25:02;11.30;99.90
12130;DHT22;6128;59.340;18.040;2022-09-12T04:27:31;11.30;99.90
12130;DHT22;6128;59.340;18.040;2022-09-12T04:29:59;11.30;99.90
12130;DHT22;6128;59.340;18.040;2022-09-12T04:32:28;11.30;99.90
12130;DHT22;6128;59.340;18.040;2022-09-12T04:34:55;11.40;99.90
12130;DHT22;6128;59.340;18.040;2022-09-12T04:37:22;11.40;99.90
12130;DHT22;6128;59.340;18.040;2022-09-12T04:39:50;11.40;99.90
12130;DHT22;6128;59.340;18.040;2022-09-12T04:42:20;11.40;99.90
12130;DHT22;6128;59.340;18.040;2022-09-12T04:44:49;11.40;99.90
12130;DHT22;6128;59.340;18.040;2022-09-12T04:47:16;11.40;99.90
12130;DHT22;6128;59.340;18.040;2022-09-12T04:49:43;11.40;99.90
12130;DHT22;6128;59.340;18.040;2022-09-12T04:52:10;11.40;99.90
12130;DHT22;6128;59.340;18.040;2022-09-12T04:54:38;11.40;99.90
12130;DHT22;6128;59.340;18.040;2022-09-12T04:57:05;11.50;99.90
12130;DHT22;6128;59.340;18.040;2022-09-12T04:59:33;11.50;99.90
12130;DHT22;6128;59.340;18.040;2022-09-12T05:02:01;11.50;99.90
12130;DHT22;6128;59.340;18.040;2022-09-12T05:04:28;11.50;99.90
12130;DHT22;6128;59.340;18.040;2022-09-12T05:06:56;11.50;99.90
12130;DHT22;6128;59.340;18.040;2022-09-12T05:09:23;11.60;99.90
12130;DHT22;6128;59.340;18.040;2022-09-12T05:11:51;11.60;99.90
12130;DHT22;6128;59.340;18.040;2022-09-12T05:14:18;11.60;99.90
12130;DHT22;6128;59.340;18.040;2022-09-12T05:16:45;11.60;99.90
12130;DHT22;6128;59.340;18.040;2022-09-12T05:19:14;11.70;99.90
12130;DHT22;6128;59.340;18.040;2022-09-12T05:21:53;11.70;99.90
12130;DHT22;6128;59.340;18.040;2022-09-12T05:24:31;11.80;99.90
12130;DHT22;6128;59.340;18.040;2022-09-12T05:27:03;11.80;99.90
12130;DHT22;6128;59.340;18.040;2022-09-12T05:29:34;11.90;99.90
12130;DHT22;6128;59.340;18.040;2022-09-12T05:32:02;11.90;99.90
12130;DHT22;6128;59.340;18.040;2022-09-12T05:34:41;12.00;99.90
12130;DHT22;6128;59.340;18.040;2022-09-12T05:37:18;12.00;99.90
12130;DHT22;6128;59.340;18.040;2022-09-12T05:39:48;12.10;99.90
12130;DHT22;6128;59.340;18.040;2022-09-12T05:42:19;12.10;99.90
12130;DHT22;6128;59.340;18.040;2022-09-12T05:44:47;12.20;99.90
12130;DHT22;6128;59.340;18.040;2022-09-12T05:47:19;12.20;99.90
12130;DHT22;6128;59.340;18.040;2022-09-12T05:49:54;12.30;99.90
12130;DHT22;6128;59.340;18.040;2022-09-12T05:52:32;12.30;99.90
12130;DHT22;6128;59.340;18.040;2022-09-12T05:54:59;12.40;99.90
12130;DHT22;6128;59.340;18.040;2022-09-12T05:57:26;12.40;99.90
12130;DHT22;6128;59.340;18.040;2022-09-12T05:59:53;12.50;99.90
12130;DHT22;6128;59.340;18.040;2022-09-12T06:02:23;12.60;99.90
12130;DHT22;6128;59.340;18.040;2022-09-12T06:04:52;12.70;99.90
12130;DHT22;6128;59.340;18.040;2022-09-12T06:07:19;12.70;99.90
12130;DHT22;6128;59.340;18.040;2022-09-12T06:09:46;12.70;99.90
12130;DHT22;6128;59.340;18.040;2022-09-12T06:12:13;12.80;99.90
12130;DHT22;6128;59.340;18.040;2022-09-12T06:14:40;12.80;99.90
12130;DHT22;6128;59.340;18.040;2022-09-12T06:17:08;12.90;99.90
12130;DHT22;6128;59.340;18.040;2022-09-12T06:19:35;12.90;99.90
12130;DHT22;6128;59.340;18.040;2022-09-12T06:22:04;13.00;99.90
12130;DHT22;6128;59.340;18.040;2022-09-12T06:24:31;13.10;99.90
12130;DHT22;6128;59.340;18.040;2022-09-12T06:26:58;13.20;99.90
12130;DHT22;6128;59.340;18.040;2022-09-12T06:29:27;13.30;99.90
12130;DHT22;6128;59.340;18.040;2022-09-12T06:31:54;13.40;99.90
12130;DHT22;6128;59.340;18.040;2022-09-12T06:34:21;13.40;99.90
12130;DHT22;6128;59.340;18.040;2022-09-12T06:36:49;13.50;99.90
12130;DHT22;6128;59.340;18.040;2022-09-12T06:39:19;13.60;99.90
12130;DHT22;6128;59.340;18.040;2022-09-12T06:41:47;13.70;99.90
12130;DHT22;6128;59.340;18.040;2022-09-12T06:44:16;13.80;99.90
12130;DHT22;6128;59.340;18.040;2022-09-12T06:46:44;13.90;99.90
12130;DHT22;6128;59.340;18.040;2022-09-12T06:49:12;14.10;99.90
12130;DHT22;6128;59.340;18.040;2022-09-12T06:51:39;14.20;99.90
12130;DHT22;6128;59.340;18.040;2022-09-12T06:54:08;14.40;99.90
12130;DHT22;6128;59.340;18.040;2022-09-12T06:56:36;14.70;99.90
12130;DHT22;6128;59.340;18.040;2022-09-12T06:59:03;15.20;99.90
12130;DHT22;6128;59.340;18.040;2022-09-12T07:01:31;15.80;99.90
12130;DHT22;6128;59.340;18.040;2022-09-12T07:04:00;16.50;99.90
12130;DHT22;6128;59.340;18.040;2022-09-12T07:06:29;17.20;99.90
12130;DHT22;6128;59.340;18.040;2022-09-12T07:08:58;17.80;99.90
12130;DHT22;6128;59.340;18.040;2022-09-12T07:11:27;18.30;99.90
12130;DHT22;6128;59.340;18.040;2022-09-12T07:13:59;18.80;99.90
12130;DHT22;6128;59.340;18.040;2022-09-12T07:16:26;19.20;99.90
12130;DHT22;6128;59.340;18.040;2022-09-12T07:18:55;19.70;99.90
12130;DHT22;6128;59.340;18.040;2022-09-12T07:21:23;20.20;99.90
12130;DHT22;6128;59.340;18.040;2022-09-12T07:23:50;20.70;99.90
12130;DHT22;6128;59.340;18.040;2022-09-12T07:26:19;21.20;99.90
12130;DHT22;6128;59.340;18.040;2022-09-12T07:28:50;21.80;99.90
12130;DHT22;6128;59.340;18.040;2022-09-12T07:31:21;22.20;99.90
12130;DHT22;6128;59.340;18.040;2022-09-12T07:33:49;22.00;99.90
12130;DHT22;6128;59.340;18.040;2022-09-12T07:36:18;21.80;99.90
12130;DHT22;6128;59.340;18.040;2022-09-12T07:38:45;21.60;99.90
12130;DHT22;6128;59.340;18.040;2022-09-12T07:41:13;21.30;99.90
12130;DHT22;6128;59.340;18.040;2022-09-12T07:43:40;21.00;99.90
12130;DHT22;6128;59.340;18.040;2022-09-12T07:46:08;20.80;99.90
12130;DHT22;6128;59.340;18.040;2022-09-12T07:48:37;20.60;99.90
12130;DHT22;6128;59.340;18.040;2022-09-12T07:51:07;20.50;99.90
12130;DHT22;6128;59.340;18.040;2022-09-12T07:53:37;20.50;99.90
12130;DHT22;6128;59.340;18.040;2022-09-12T07:56:05;20.50;99.90
12130;DHT22;6128;59.340;18.040;2022-09-12T07:58:34;20.50;99.90
12130;DHT22;6128;59.340;18.040;2022-09-12T08:01:02;20.50;99.90
12130;DHT22;6128;59.340;18.040;2022-09-12T08:03:30;20.60;99.90
12130;DHT22;6128;59.340;18.040;2022-09-12T08:06:04;20.70;99.90
12130;DHT22;6128;59.340;18.040;2022-09-12T08:08:31;20.80;99.90
12130;DHT22;6128;59.340;18.040;2022-09-12T08:10:59;21.10;99.90
12130;DHT22;6128;59.340;18.040;2022-09-12T08:13:26;21.10;99.90
12130;DHT22;6128;59.340;18.040;2022-09-12T08:15:57;21.10;99.90
12130;DHT22;6128;59.340;18.040;2022-09-12T08:18:25;21.30;99.90
12130;DHT22;6128;59.340;18.040;2022-09-12T08:20:56;21.60;99.90
12130;DHT22;6128;59.340;18.040;2022-09-12T08:23:25;21.90;99.90
12130;DHT22;6128;59.340;18.040;2022-09-12T08:25:55;22.10;99.90
12130;DHT22;6128;59.340;18.040;2022-09-12T08:28:22;22.40;99.90
12130;DHT22;6128;59.340;18.040;2022-09-12T08:30:50;22.80;99.90
12130;DHT22;6128;59.340;18.040;2022-09-12T08:33:17;23.00;99.90
12130;DHT22;6128;59.340;18.040;2022-09-12T08:35:44;23.30;99.90
12130;DHT22;6128;59.340;18.040;2022-09-12T08:38:12;23.30;99.90
12130;DHT22;6128;59.340;18.040;2022-09-12T08:40:48;23.20;99.90
12130;DHT22;6128;59.340;18.040;2022-09-12T08:43:29;23.30;99.90
12130;DHT22;6128;59.340;18.040;2022-09-12T08:46:03;23.20;99.90
12130;DHT22;6128;59.340;18.040;2022-09-12T08:48:32;23.10;99.90
12130;DHT22;6128;59.340;18.040;2022-09-12T08:50:59;23.40;99.90
12130;DHT22;6128;59.340;18.040;2022-09-12T08:53:32;23.70;99.90
12130;DHT22;6128;59.340;18.040;2022-09-12T08:56:05;23.90;99.90
12130;DHT22;6128;59.340;18.040;2022-09-12T08:58:38;23.90;99.90
12130;DHT22;6128;59.340;18.040;2022-09-12T09:01:09;23.90;99.90
12130;DHT22;6128;59.340;18.040;2022-09-12T09:04:07;24.00;99.90
12130;DHT22;6128;59.340;18.040;2022-09-12T09:06:56;24.00;99.90
12130;DHT22;6128;59.340;18.040;2022-09-12T09:09:34;24.10;99.90
12130;DHT22;6128;59.340;18.040;2022-09-12T09:12:14;24.00;99.90
12130;DHT22;6128;59.340;18.040;2022-09-12T09:15:00;23.80;99.90
12130;DHT22;6128;59.340;18.040;2022-09-12T09:17:32;23.40;99.90
12130;DHT22;6128;59.340;18.040;2022-09-12T09:20:06;22.80;99.90
12130;DHT22;6128;59.340;18.040;2022-09-12T09:22:43;22.20;99.90
12130;DHT22;6128;59.340;18.040;2022-09-12T09:25:16;21.70;99.90
12130;DHT22;6128;59.340;18.040;2022-09-12T09:27:52;21.30;99.90
12130;DHT22;6128;59.340;18.040;2022-09-12T09:30:20;20.90;99.90
12130;DHT22;6128;59.340;18.040;2022-09-12T09:32:50;20.50;99.90
12130;DHT22;6128;59.340;18.040;2022-09-12T09:35:24;20.20;99.90
12130;DHT22;6128;59.340;18.040;2022-09-12T09:38:00;19.90;99.90
12130;DHT22;6128;59.340;18.040;2022-09-12T09:40:35;19.70;99.90
12130;DHT22;6128;59.340;18.040;2022-09-12T09:43:12;19.60;99.90
12130;DHT22;6128;59.340;18.040;2022-09-12T09:45:43;19.40;99.90
12130;DHT22;6128;59.340;18.040;2022-09-12T09:48:18;19.40;99.90
12130;DHT22;6128;59.340;18.040;2022-09-12T09:50:47;19.40;99.90
12130;DHT22;6128;59.340;18.040;2022-09-12T09:53:26;19.40;99.90
12130;DHT22;6128;59.340;18.040;2022-09-12T09:55:56;19.30;99.90
12130;DHT22;6128;59.340;18.040;2022-09-12T09:58:30;19.30;99.90
12130;DHT22;6128;59.340;18.040;2022-09-12T10:01:01;19.30;99.90
12130;DHT22;6128;59.340;18.040;2022-09-12T10:03:31;19.30;99.90
12130;DHT22;6128;59.340;18.040;2022-09-12T10:06:00;19.40;99.90
12130;DHT22;6128;59.340;18.040;2022-09-12T10:08:29;19.40;99.90
12130;DHT22;6128;59.340;18.040;2022-09-12T10:11:02;19.30;99.90
12130;DHT22;6128;59.340;18.040;2022-09-12T10:13:34;19.40;99.90
12130;DHT22;6128;59.340;18.040;2022-09-12T10:16:05;19.30;99.90
12130;DHT22;6128;59.340;18.040;2022-09-12T10:18:35;19.40;99.90
12130;DHT22;6128;59.340;18.040;2022-09-12T10:21:15;19.40;99.90
12130;DHT22;6128;59.340;18.040;2022-09-12T10:23:45;19.50;99.90
12130;DHT22;6128;59.340;18.040;2022-09-12T10:26:14;19.50;99.90
12130;DHT22;6128;59.340;18.040;2022-09-12T10:28:46;19.50;99.90
12130;DHT22;6128;59.340;18.040;2022-09-12T10:31:16;19.50;99.90
12130;DHT22;6128;59.340;18.040;2022-09-12T10:33:55;19.60;99.90
12130;DHT22;6128;59.340;18.040;2022-09-12T10:36:23;19.60;99.90
12130;DHT22;6128;59.340;18.040;2022-09-12T10:38:54;19.70;99.90
12130;DHT22;6128;59.340;18.040;2022-09-12T10:41:22;19.70;99.90
12130;DHT22;6128;59.340;18.040;2022-09-12T10:43:51;19.80;99.90
12130;DHT22;6128;59.340;18.040;2022-09-12T10:46:26;19.90;99.90
12130;DHT22;6128;59.340;18.040;2022-09-12T10:49:22;20.00;99.90
12130;DHT22;6128;59.340;18.040;2022-09-12T10:51:51;20.00;99.90
12130;DHT22;6128;59.340;18.040;2022-09-12T10:54:21;19.90;99.90
12130;DHT22;6128;59.340;18.040;2022-09-12T10:57:13;19.90;99.90
12130;DHT22;6128;59.340;18.040;2022-09-12T11:00:03;19.90;99.90
12130;DHT22;6128;59.340;18.040;2022-09-12T11:05:50;20.00;99.90
12130;DHT22;6128;59.340;18.040;2022-09-12T11:08:36;20.00;99.90
12130;DHT22;6128;59.340;18.040;2022-09-12T11:11:13;20.10;99.90
12130;DHT22;6128;59.340;18.040;2022-09-12T11:13:56;20.10;99.90
12130;DHT22;6128;59.340;18.040;2022-09-12T11:16:34;20.20;99.90
12130;DHT22;6128;59.340;18.040;2022-09-12T11:19:28;20.30;99.90
12130;DHT22;6128;59.340;18.040;2022-09-12T11:22:15;20.40;99.90
12130;DHT22;6128;59.340;18.040;2022-09-12T11:24:56;20.50;99.90
12130;DHT22;6128;59.340;18.040;2022-09-12T11:27:38;20.70;99.90
12130;DHT22;6128;59.340;18.040;2022-09-12T11:30:12;20.80;99.90
12130;DHT22;6128;59.340;18.040;2022-09-12T11:33:07;20.80;99.90
12130;DHT22;6128;59.340;18.040;2022-09-12T11:35:46;20.80;99.90
12130;DHT22;6128;59.340;18.040;2022-09-12T11:38:31;20.90;99.90
12130;DHT22;6128;59.340;18.040;2022-09-12T11:41:05;20.90;99.90
12130;DHT22;6128;59.340;18.040;2022-09-12T11:43:38;21.00;99.90
12130;DHT22;6128;59.340;18.040;2022-09-12T11:46:13;21.00;99.90
12130;DHT22;6128;59.340;18.040;2022-09-12T11:48:50;21.00;99.90
12130;DHT22;6128;59.340;18.040;2022-09-12T11:51:28;20.90;99.90
12130;DHT22;6128;59.340;18.040;2022-09-12T11:54:08;20.90;99.90
12130;DHT22;6128;59.340;18.040;2022-09-12T11:56:42;20.80;99.90
12130;DHT22;6128;59.340;18.040;2022-09-12T11:59:16;20.80;99.90
12130;DHT22;6128;59.340;18.040;2022-09-12T12:01:48;20.80;99.90
12130;DHT22;6128;59.340;18.040;2022-09-12T12:04:23;20.70;99.90
12130;DHT22;6128;59.340;18.040;2022-09-12T12:06:56;20.70;99.90
12130;DHT22;6128;59.340;18.040;2022-09-12T12:09:27;20.70;99.90
12130;DHT22;6128;59.340;18.040;2022-09-12T12:11:56;20.70;99.90
12130;DHT22;6128;59.340;18.040;2022-09-12T12:14:28;20.70;99.90
12130;DHT22;6128;59.340;18.040;2022-09-12T12:16:56;20.70;99.90
12130;DHT22;6128;59.340;18.040;2022-09-12T12:19:32;20.80;99.90
12130;DHT22;6128;59.340;18.040;2022-09-12T12:22:11;20.80;99.90
12130;DHT22;6128;59.340;18.040;2022-09-12T12:25:07;20.70;99.90
12130;DHT22;6128;59.340;18.040;2022-09-12T12:27:52;20.70;99.90
12130;DHT22;6128;59.340;18.040;2022-09-12T12:33:59;20.50;99.80
12130;DHT22;6128;59.340;18.040;2022-09-12T12:36:39;20.40;99.80
12130;DHT22;6128;59.340;18.040;2022-09-12T12:45:47;20.50;99.80
12130;DHT22;6128;59.340;18.040;2022-09-12T12:48:16;20.40;99.80
12130;DHT22;6128;59.340;18.040;2022-09-12T12:50:45;20.30;99.90
12130;DHT22;6128;59.340;18.040;2022-09-12T12:53:20;20.20;99.90
12130;DHT22;6128;59.340;18.040;2022-09-12T12:55:50;20.20;99.90
12130;DHT22;6128;59.340;18.040;2022-09-12T12:58:27;20.30;99.90
12130;DHT22;6128;59.340;18.040;2022-09-12T13:01:08;20.30;99.90
12130;DHT22;6128;59.340;18.040;2022-09-12T13:03:37;20.20;99.90
12130;DHT22;6128;59.340;18.040;2022-09-12T13:06:08;20.20;99.90
12130;DHT22;6128;59.340;18.040;2022-09-12T13:08:57;20.10;99.90
12130;DHT22;6128;59.340;18.040;2022-09-12T13:11:33;20.10;99.90
12130;DHT22;6128;59.340;18.040;2022-09-12T13:14:03;19.90;99.90
12130;DHT22;6128;59.340;18.040;2022-09-12T13:16:33;19.80;99.90
12130;DHT22;6128;59.340;18.040;2022-09-12T13:19:05;19.80;99.90
12130;DHT22;6128;59.340;18.040;2022-09-12T13:21:33;19.70;99.90
12130;DHT22;6128;59.340;18.040;2022-09-12T13:24:04;19.70;99.90
12130;DHT22;6128;59.340;18.040;2022-09-12T13:26:40;19.80;99.90
12130;DHT22;6128;59.340;18.040;2022-09-12T13:29:10;19.80;99.90
12130;DHT22;6128;59.340;18.040;2022-09-12T13:31:38;19.80;99.90
12130;DHT22;6128;59.340;18.040;2022-09-12T13:34:08;19.80;99.90
12130;DHT22;6128;59.340;18.040;2022-09-12T13:36:46;19.80;99.90
12130;DHT22;6128;59.340;18.040;2022-09-12T13:39:20;19.80;99.90
12130;DHT22;6128;59.340;18.040;2022-09-12T13:42:31;19.80;99.90
12130;DHT22;6128;59.340;18.040;2022-09-12T13:45:05;19.70;99.90
12130;DHT22;6128;59.340;18.040;2022-09-12T13:47:39;19.80;99.90
12130;DHT22;6128;59.340;18.040;2022-09-12T13:50:11;19.80;99.90
12130;DHT22;6128;59.340;18.040;2022-09-12T13:52:45;19.80;99.90
12130;DHT22;6128;59.340;18.040;2022-09-12T13:55:24;19.90;99.90
12130;DHT22;6128;59.340;18.040;2022-09-12T13:57:58;19.90;99.90
12130;DHT22;6128;59.340;18.040;2022-09-12T14:00:26;19.90;99.90
12130;DHT22;6128;59.340;18.040;2022-09-12T14:02:57;19.90;99.90
12130;DHT22;6128;59.340;18.040;2022-09-12T14:05:38;19.80;99.90
12130;DHT22;6128;59.340;18.040;2022-09-12T14:08:11;19.80;99.90
12130;DHT22;6128;59.340;18.040;2022-09-12T14:10:43;19.80;99.90
12130;DHT22;6128;59.340;18.040;2022-09-12T14:13:15;19.80;99.90
12130;DHT22;6128;59.340;18.040;2022-09-12T14:15:45;19.90;99.90
12130;DHT22;6128;59.340;18.040;2022-09-12T14:18:23;19.90;99.90
12130;DHT22;6128;59.340;18.040;2022-09-12T14:20:51;19.90;99.90
12130;DHT22;6128;59.340;18.040;2022-09-12T14:23:26;19.90;99.90
12130;DHT22;6128;59.340;18.040;2022-09-12T14:25:55;19.90;99.90
12130;DHT22;6128;59.340;18.040;2022-09-12T14:28:25;19.90;99.90
12130;DHT22;6128;59.340;18.040;2022-09-12T14:31:03;19.80;99.90
12130;DHT22;6128;59.340;18.040;2022-09-12T14:33:33;19.80;99.90
12130;DHT22;6128;59.340;18.040;2022-09-12T14:36:18;19.60;99.90
12130;DHT22;6128;59.340;18.040;2022-09-12T14:38:49;19.50;99.90
12130;DHT22;6128;59.340;18.040;2022-09-12T14:41:23;19.50;99.90
12130;DHT22;6128;59.340;18.040;2022-09-12T14:43:55;19.40;99.90
12130;DHT22;6128;59.340;18.040;2022-09-12T14:46:26;19.40;99.90
12130;DHT22;6128;59.340;18.040;2022-09-12T14:48:58;19.30;99.90
12130;DHT22;6128;59.340;18.040;2022-09-12T14:51:30;19.30;99.90
12130;DHT22;6128;59.340;18.040;2022-09-12T14:53:58;19.30;99.90
12130;DHT22;6128;59.340;18.040;2022-09-12T14:56:39;19.30;99.90
12130;DHT22;6128;59.340;18.040;2022-09-12T14:59:37;19.30;99.90
12130;DHT22;6128;59.340;18.040;2022-09-12T15:02:25;19.30;99.90
12130;DHT22;6128;59.340;18.040;2022-09-12T15:04:53;19.30;99.90
12130;DHT22;6128;59.340;18.040;2022-09-12T15:07:28;19.30;99.90
12130;DHT22;6128;59.340;18.040;2022-09-12T15:09:57;19.20;99.90
12130;DHT22;6128;59.340;18.040;2022-09-12T15:12:26;19.20;99.90
12130;DHT22;6128;59.340;18.040;2022-09-12T15:17:37;19.00;99.90
12130;DHT22;6128;59.340;18.040;2022-09-12T15:20:18;19.00;99.90
12130;DHT22;6128;59.340;18.040;2022-09-12T15:22:45;18.90;99.90
12130;DHT22;6128;59.340;18.040;2022-09-12T15:25:12;18.90;99.90
12130;DHT22;6128;59.340;18.040;2022-09-12T15:27:41;18.80;99.90
12130;DHT22;6128;59.340;18.040;2022-09-12T15:30:10;18.80;99.90
12130;DHT22;6128;59.340;18.040;2022-09-12T15:32:38;18.80;99.90
12130;DHT22;6128;59.340;18.040;2022-09-12T15:35:09;18.80;99.90
12130;DHT22;6128;59.340;18.040;2022-09-12T15:37:37;18.70;99.90
12130;DHT22;6128;59.340;18.040;2022-09-12T15:40:05;18.70;99.90
12130;DHT22;6128;59.340;18.040;2022-09-12T15:42:32;18.70;99.90
12130;DHT22;6128;59.340;18.040;2022-09-12T15:45:01;18.80;99.90
12130;DHT22;6128;59.340;18.040;2022-09-12T15:47:29;18.90;99.90
12130;DHT22;6128;59.340;18.040;2022-09-12T15:49:56;18.90;99.90
12130;DHT22;6128;59.340;18.040;2022-09-12T15:52:23;18.90;99.90
12130;DHT22;6128;59.340;18.040;2022-09-12T15:54:50;19.00;99.90
12130;DHT22;6128;59.340;18.040;2022-09-12T15:57:18;19.00;99.90
12130;DHT22;6128;59.340;18.040;2022-09-12T15:59:45;18.90;99.90
12130;DHT22;6128;59.340;18.040;2022-09-12T16:02:13;18.90;99.90
12130;DHT22;6128;59.340;18.040;2022-09-12T16:04:40;18.80;99.90
12130;DHT22;6128;59.340;18.040;2022-09-12T16:07:07;18.70;99.90
12130;DHT22;6128;59.340;18.040;2022-09-12T16:09:34;18.60;99.90
12130;DHT22;6128;59.340;18.040;2022-09-12T16:12:01;18.50;99.90
12130;DHT22;6128;59.340;18.040;2022-09-12T16:14:29;18.50;99.90
12130;DHT22;6128;59.340;18.040;2022-09-12T16:16:56;18.40;99.90
12130;DHT22;6128;59.340;18.040;2022-09-12T16:19:24;18.30;99.90